Time;durP1;ratioP1;P1;durP2;ratioP2;P2;SDS_P1;SDS_P2;PMS_P1;PMS_P2;Temp;Humidity;BMP_temperature;BMP_pressure;BME280_temperature;BME280_humidity;BME280_pressure;Samples;Min_cycle;Max_cycle;Signal;HPM_P1;HPM_P2
2022/01/02 00:02:00;;;;;;;8.95;5.75;;;11.80;73.30;;;;;;4972855;28;20483;-73
2022/01/02 00:04:29;;;;;;;10.35;5.80;;;11.80;73.10;;;;;;4972642;28;20388;-73
2022/01/02 00:07:03;;;;;;;9.13;5.50;;;11.80;72.50;;;;;;4976808;28;20480;-74
2022/01/02 00:09:35;;;;;;;8.35;5.38;;;11.80;72.30;;;;;;4973475;28;20827;-73
2022/01/02 00:12:05;;;;;;;7.90;5.30;;;11.80;72.10;;;;;;4973456;28;20758;-72
2022/01/02 00:14:35;;;;;;;6.97;5.15;;;11.80;72.20;;;;;;4972603;28;20855;-74
2022/01/02 00:17:06;;;;;;;10.13;5.60;;;11.70;73.00;;;;;;4972538;28;20392;-72
2022/01/02 00:19:34;;;;;;;7.93;5.70;;;11.70;72.70;;;;;;4972726;28;20475;-73
2022/01/02 00:22:02;;;;;;;9.13;5.70;;;11.70;72.50;;;;;;4987685;28;20392;-75
2022/01/02 00:24:30;;;;;;;8.15;5.95;;;11.70;72.20;;;;;;4972100;28;20404;-73
2022/01/02 00:26:59;;;;;;;9.90;5.90;;;11.70;72.90;;;;;;4971377;28;20636;-71
2022/01/02 00:29:25;;;;;;;9.48;5.97;;;11.70;72.50;;;;;;4971037;28;20408;-74
2022/01/02 00:31:53;;;;;;;11.50;6.00;;;11.70;71.80;;;;;;4972182;28;20420;-73
2022/01/02 00:34:19;;;;;;;8.68;5.70;;;11.80;71.70;;;;;;4972465;28;20388;-73
2022/01/02 00:36:44;;;;;;;11.23;5.80;;;11.70;71.10;;;;;;4971908;28;20390;-73
2022/01/02 00:39:10;;;;;;;8.10;5.93;;;11.70;70.70;;;;;;4971879;28;20427;-73
2022/01/02 00:41:38;;;;;;;8.43;5.50;;;11.70;70.50;;;;;;4971976;28;20400;-71
2022/01/02 00:44:38;;;;;;;8.40;5.90;;;11.70;70.70;;;;;;4971616;28;20408;-71
2022/01/02 00:47:07;;;;;;;9.25;6.20;;;11.70;71.00;;;;;;4974102;28;20399;-73
2022/01/02 00:49:40;;;;;;;10.43;5.82;;;11.70;70.90;;;;;;4974177;28;20384;-72
2022/01/02 00:52:12;;;;;;;8.48;5.90;;;11.70;70.60;;;;;;4976666;28;20396;-73
2022/01/02 00:54:42;;;;;;;8.52;5.72;;;11.70;70.60;;;;;;4975634;28;20415;-74
2022/01/02 00:57:16;;;;;;;9.98;6.18;;;11.80;70.10;;;;;;4975517;28;20384;-75
2022/01/02 01:00:08;;;;;;;14.45;6.20;;;11.80;69.00;;;;;;4975501;28;20400;-73
2022/01/02 01:02:39;;;;;;;7.40;5.70;;;11.80;68.50;;;;;;4974991;28;20932;-73
2022/01/02 01:05:07;;;;;;;8.40;6.05;;;11.80;69.40;;;;;;4975355;28;20442;-74
2022/01/02 01:07:34;;;;;;;11.15;6.10;;;11.80;70.00;;;;;;4975453;28;20734;-73
2022/01/02 01:10:02;;;;;;;9.07;6.00;;;11.80;68.90;;;;;;4975421;28;20443;-73
2022/01/02 01:12:29;;;;;;;13.02;6.70;;;11.80;68.60;;;;;;4975345;28;20395;-73
2022/01/02 01:14:55;;;;;;;10.60;5.97;;;11.80;69.40;;;;;;4975013;28;20396;-74
2022/01/02 01:17:21;;;;;;;9.48;5.85;;;11.80;68.70;;;;;;4974741;28;20392;-73
2022/01/02 01:19:49;;;;;;;11.33;7.00;;;11.80;68.70;;;;;;4975319;28;20949;-73
2022/01/02 01:22:15;;;;;;;9.75;6.20;;;11.80;68.20;;;;;;4975041;28;20415;-73
2022/01/02 01:24:41;;;;;;;11.30;6.20;;;11.70;69.20;;;;;;4974801;28;20870;-73
2022/01/02 01:27:08;;;;;;;9.75;6.10;;;11.80;69.00;;;;;;4974948;28;20393;-72
2022/01/02 01:29:35;;;;;;;9.25;5.80;;;11.80;69.30;;;;;;4977737;28;20384;-71
2022/01/02 01:32:05;;;;;;;9.38;6.32;;;11.80;68.20;;;;;;4973937;28;20416;-73
2022/01/02 01:34:31;;;;;;;8.02;6.40;;;11.80;67.90;;;;;;4975848;28;20389;-72
2022/01/02 01:36:56;;;;;;;12.60;6.50;;;11.80;67.30;;;;;;4975899;28;20384;-73
2022/01/02 01:39:22;;;;;;;11.07;6.53;;;11.80;67.60;;;;;;4976615;28;20396;-73
2022/01/02 01:41:48;;;;;;;13.23;6.80;;;11.70;69.00;;;;;;4977332;28;20380;-74
2022/01/02 01:46:40;;;;;;;9.57;6.53;;;11.80;68.10;;;;;;4979476;28;20404;-74
2022/01/02 01:49:17;;;;;;;10.05;6.20;;;11.80;66.90;;;;;;4977704;28;20443;-72
2022/01/02 01:51:44;;;;;;;9.50;6.43;;;11.90;66.40;;;;;;4981643;28;20384;-72
2022/01/02 01:54:09;;;;;;;10.27;6.15;;;11.80;66.70;;;;;;4987881;28;20407;-72
2022/01/02 01:56:36;;;;;;;9.20;5.90;;;11.90;66.50;;;;;;4979584;28;20404;-73
2022/01/02 01:59:03;;;;;;;9.13;6.32;;;11.90;65.80;;;;;;4974455;28;20415;-71
2022/01/02 02:01:28;;;;;;;8.80;5.85;;;11.90;65.90;;;;;;4973785;28;20453;-73
2022/01/02 02:03:55;;;;;;;9.40;6.40;;;11.90;66.50;;;;;;4973963;28;20507;-75
2022/01/02 02:06:21;;;;;;;9.88;6.25;;;11.90;66.50;;;;;;4972851;28;20470;-72
2022/01/02 02:08:47;;;;;;;9.32;6.30;;;11.90;66.50;;;;;;4975364;28;20416;-72
2022/01/02 02:11:13;;;;;;;9.57;6.13;;;11.80;67.00;;;;;;4976544;28;20884;-74
2022/01/02 02:13:40;;;;;;;7.80;6.03;;;11.80;66.60;;;;;;4975627;28;20451;-73
2022/01/02 02:16:05;;;;;;;9.35;5.95;;;11.80;66.60;;;;;;4974195;28;20400;-73
2022/01/02 02:18:31;;;;;;;9.32;6.10;;;11.80;66.80;;;;;;4973948;28;20416;-72
2022/01/02 02:20:56;;;;;;;11.52;6.50;;;11.70;68.40;;;;;;4974405;28;20825;-73
2022/01/02 02:23:22;;;;;;;11.68;6.63;;;11.70;68.10;;;;;;4974007;28;20408;-74
2022/01/02 02:25:48;;;;;;;10.82;5.70;;;11.70;68.90;;;;;;4974957;28;20431;-73
2022/01/02 02:28:16;;;;;;;11.63;6.03;;;11.60;68.90;;;;;;4974143;28;20388;-73
2022/01/02 02:30:44;;;;;;;9.32;6.40;;;11.60;68.80;;;;;;4974676;28;20476;-71
2022/01/02 02:33:11;;;;;;;10.85;6.20;;;11.70;67.90;;;;;;4974153;28;20395;-73
2022/01/02 02:35:39;;;;;;;9.23;6.00;;;11.70;68.10;;;;;;4973479;28;20400;-73
2022/01/02 02:38:07;;;;;;;10.80;6.20;;;11.70;67.80;;;;;;4973276;28;20424;-73
2022/01/02 02:40:34;;;;;;;9.85;6.65;;;11.70;67.60;;;;;;4973854;28;20528;-72
2022/01/02 02:43:06;;;;;;;9.20;6.28;;;11.70;67.80;;;;;;4973691;28;20404;-71
2022/01/02 02:51:09;;;;;;;7.55;5.65;;;11.70;66.70;;;;;;4973503;28;20379;-73
2022/01/02 02:53:37;;;;;;;7.30;5.90;;;11.70;66.00;;;;;;4977990;28;20431;-72
2022/01/02 02:56:13;;;;;;;9.05;5.63;;;11.80;66.40;;;;;;4973676;28;20388;-72
2022/01/02 02:58:41;;;;;;;7.93;5.40;;;11.70;66.70;;;;;;4973386;28;20742;-72
2022/01/02 03:01:11;;;;;;;9.85;6.00;;;11.70;66.30;;;;;;4973236;28;20976;-71
2022/01/02 03:03:37;;;;;;;10.35;6.28;;;11.70;67.10;;;;;;4973267;28;20412;-72
2022/01/02 03:06:03;;;;;;;7.77;5.60;;;11.70;67.10;;;;;;4973513;28;20964;-73
2022/01/02 03:08:30;;;;;;;9.60;5.53;;;11.70;66.30;;;;;;4973047;28;20795;-75
2022/01/02 03:10:55;;;;;;;8.47;5.57;;;11.70;65.00;;;;;;4973130;28;20392;-72
2022/01/02 03:13:21;;;;;;;8.20;5.33;;;11.70;64.90;;;;;;4972252;28;20957;-73
2022/01/02 03:15:47;;;;;;;8.97;5.10;;;11.80;64.40;;;;;;4974880;28;20396;-72
2022/01/02 03:18:12;;;;;;;9.43;5.50;;;11.80;63.40;;;;;;4973283;28;20396;-73
2022/01/02 03:20:38;;;;;;;6.90;5.20;;;11.80;63.40;;;;;;4973147;28;20908;-74
2022/01/02 03:23:03;;;;;;;7.20;5.50;;;11.80;63.10;;;;;;4973299;28;20864;-73
2022/01/02 03:25:29;;;;;;;9.90;6.05;;;11.70;63.70;;;;;;4972764;28;20408;-73
2022/01/02 03:27:54;;;;;;;7.28;5.30;;;11.70;64.60;;;;;;4971290;28;20408;-72
2022/01/02 03:30:20;;;;;;;10.27;5.80;;;11.80;64.10;;;;;;4973281;28;20396;-73
2022/01/02 03:32:46;;;;;;;8.23;5.63;;;11.90;63.00;;;;;;4973374;28;20822;-73
2022/01/02 03:35:11;;;;;;;9.80;5.80;;;11.90;62.80;;;;;;4973406;28;20396;-73
2022/01/02 03:37:37;;;;;;;10.45;5.70;;;11.80;62.90;;;;;;4972499;28;20398;-73
2022/01/02 03:40:06;;;;;;;7.63;5.50;;;11.80;63.70;;;;;;4974721;28;20396;-71
2022/01/02 03:42:32;;;;;;;9.60;5.95;;;11.80;64.60;;;;;;4972324;28;20404;-73
2022/01/02 03:44:58;;;;;;;11.23;5.93;;;11.80;65.70;;;;;;4973158;28;20888;-73
2022/01/02 03:47:25;;;;;;;10.77;5.95;;;11.80;66.70;;;;;;4972863;28;20399;-72
2022/01/02 03:49:50;;;;;;;8.23;5.63;;;11.80;67.30;;;;;;4972971;28;20388;-72
2022/01/02 03:52:16;;;;;;;9.88;6.40;;;11.80;67.00;;;;;;4972786;28;20406;-72
2022/01/02 03:54:41;;;;;;;7.13;5.23;;;11.70;67.80;;;;;;4972292;28;20396;-72
2022/01/02 03:57:07;;;;;;;9.07;5.53;;;11.70;68.40;;;;;;4971844;28;20400;-72
2022/01/02 03:59:33;;;;;;;9.40;5.77;;;11.70;68.30;;;;;;4971148;28;20408;-72
2022/01/02 04:01:58;;;;;;;8.10;5.75;;;11.70;68.70;;;;;;4972268;28;20411;-72
2022/01/02 04:04:24;;;;;;;10.27;5.97;;;11.70;68.20;;;;;;4972843;28;20379;-72
2022/01/02 04:06:49;;;;;;;10.83;6.27;;;11.70;67.60;;;;;;4972291;28;20392;-71
2022/01/02 04:09:15;;;;;;;8.30;5.70;;;11.70;67.50;;;;;;4972171;28;20475;-72
2022/01/02 04:11:41;;;;;;;6.88;5.20;;;11.70;67.40;;;;;;4972434;28;20392;-72
2022/01/02 04:14:07;;;;;;;11.20;6.13;;;11.70;66.50;;;;;;4972568;28;20388;-73
2022/01/02 04:16:32;;;;;;;10.57;6.03;;;11.70;68.00;;;;;;4972282;28;20400;-72
2022/01/02 04:18:58;;;;;;;9.17;6.17;;;11.70;67.30;;;;;;4972524;28;20388;-72
2022/01/02 04:21:24;;;;;;;10.60;5.43;;;11.70;67.80;;;;;;4974095;28;20400;-73
2022/01/02 04:23:49;;;;;;;9.53;5.90;;;11.70;67.90;;;;;;4988528;23;20416;-69
2022/01/02 04:26:15;;;;;;;12.40;6.05;;;11.60;68.80;;;;;;4994423;28;20484;-69
2022/01/02 04:28:40;;;;;;;8.90;5.55;;;11.70;68.00;;;;;;5009991;28;20390;-70
2022/01/02 04:31:06;;;;;;;7.25;5.30;;;11.70;67.90;;;;;;4995320;28;20394;-69
2022/01/02 04:33:32;;;;;;;12.65;6.13;;;11.70;67.20;;;;;;4994962;28;20393;-68
2022/01/02 04:35:57;;;;;;;10.13;5.75;;;11.70;68.60;;;;;;4994636;28;20388;-69
2022/01/02 04:38:23;;;;;;;11.35;6.65;;;11.70;68.40;;;;;;4993403;28;20386;-70
2022/01/02 04:40:48;;;;;;;7.87;6.10;;;11.70;67.50;;;;;;4994947;28;20394;-69
2022/01/02 04:43:14;;;;;;;11.98;6.10;;;11.70;67.60;;;;;;4995164;28;20413;-69
2022/01/02 04:45:40;;;;;;;10.80;6.45;;;11.80;68.20;;;;;;4993618;28;20390;-69
2022/01/02 04:48:06;;;;;;;11.65;6.80;;;11.70;69.40;;;;;;4993818;28;20412;-69
2022/01/02 04:50:31;;;;;;;12.50;7.13;;;11.70;69.80;;;;;;4995266;28;20474;-69
2022/01/02 04:52:57;;;;;;;12.77;7.15;;;11.70;70.30;;;;;;4995087;28;20870;-69
2022/01/02 04:55:23;;;;;;;10.85;6.10;;;11.70;70.50;;;;;;4994600;28;20387;-70
2022/01/02 04:57:48;;;;;;;12.35;7.00;;;11.70;69.60;;;;;;4994018;28;20779;-69
2022/01/02 05:00:14;;;;;;;12.73;7.10;;;11.80;69.00;;;;;;4994127;28;20740;-70
2022/01/02 05:02:40;;;;;;;11.80;6.72;;;11.70;70.10;;;;;;4992892;28;20433;-68
2022/01/02 05:05:06;;;;;;;12.13;7.03;;;11.80;70.50;;;;;;4994197;28;20441;-69
2022/01/02 05:07:31;;;;;;;11.33;7.13;;;11.70;71.00;;;;;;4993770;28;20996;-70
2022/01/02 05:09:57;;;;;;;10.20;6.67;;;11.70;71.70;;;;;;4993914;28;20421;-69
2022/01/02 05:12:23;;;;;;;9.60;7.00;;;11.70;71.60;;;;;;4993804;28;20447;-68
2022/01/02 05:14:48;;;;;;;9.83;7.03;;;11.70;72.10;;;;;;4993918;28;20458;-69
2022/01/02 05:17:14;;;;;;;10.40;7.40;;;11.60;72.80;;;;;;4993660;28;20394;-70
2022/01/02 05:19:40;;;;;;;13.03;6.97;;;11.60;73.60;;;;;;4992520;28;20394;-69
2022/01/02 05:22:05;;;;;;;9.43;7.00;;;11.60;74.70;;;;;;4993540;28;20390;-69
2022/01/02 05:24:31;;;;;;;12.50;6.53;;;11.50;74.60;;;;;;4993660;28;20477;-68
2022/01/02 05:26:56;;;;;;;10.75;7.10;;;11.50;75.70;;;;;;4993688;28;20755;-70
2022/01/02 05:29:23;;;;;;;11.90;7.55;;;11.50;75.90;;;;;;4993840;28;20397;-69
2022/01/02 05:31:49;;;;;;;11.07;7.03;;;11.50;75.40;;;;;;4993578;28;20750;-70
2022/01/02 05:34:15;;;;;;;9.55;6.43;;;11.60;75.10;;;;;;4993435;28;20895;-68
2022/01/02 05:36:41;;;;;;;13.90;6.83;;;11.60;75.70;;;;;;4992424;28;20409;-70
2022/01/02 05:39:07;;;;;;;13.77;7.53;;;11.50;76.30;;;;;;4993283;28;20433;-68
2022/01/02 05:41:34;;;;;;;12.50;7.45;;;11.50;76.00;;;;;;4993364;28;20382;-69
2022/01/02 05:43:59;;;;;;;12.25;6.90;;;11.50;75.60;;;;;;4993245;28;20410;-69
2022/01/02 05:46:25;;;;;;;10.25;6.72;;;11.50;75.60;;;;;;4993255;28;20390;-69
2022/01/02 05:48:52;;;;;;;10.43;7.00;;;11.50;75.70;;;;;;4991820;28;20441;-69
2022/01/02 05:51:18;;;;;;;13.47;7.27;;;11.50;75.50;;;;;;4993271;28;20386;-68
2022/01/02 05:53:43;;;;;;;12.50;7.30;;;11.50;75.60;;;;;;4993013;28;20744;-67
2022/01/02 05:56:09;;;;;;;14.13;7.75;;;11.50;77.10;;;;;;4992938;28;20394;-68
2022/01/02 05:58:35;;;;;;;13.65;7.50;;;11.50;78.00;;;;;;4993028;28;20402;-68
2022/01/02 06:01:00;;;;;;;10.57;6.90;;;11.50;76.70;;;;;;4993199;28;20398;-69
2022/01/02 06:03:26;;;;;;;13.07;7.90;;;11.50;77.10;;;;;;4993263;28;20410;-70
2022/01/02 06:05:51;;;;;;;11.40;7.07;;;11.60;76.20;;;;;;4993100;28;20477;-69
2022/01/02 06:08:17;;;;;;;10.90;7.30;;;11.50;77.40;;;;;;4993041;28;20382;-69
2022/01/02 06:10:43;;;;;;;13.53;7.30;;;11.50;78.50;;;;;;4992957;28;20387;-70
2022/01/02 06:13:08;;;;;;;11.77;7.40;;;11.50;79.70;;;;;;4992876;28;20441;-69
2022/01/02 06:15:34;;;;;;;12.37;8.13;;;11.50;80.40;;;;;;4992666;28;20402;-68
2022/01/02 06:18:00;;;;;;;12.47;7.80;;;11.40;81.50;;;;;;4992663;28;20390;-69
2022/01/02 06:20:25;;;;;;;11.10;7.90;;;11.40;81.70;;;;;;4992641;28;20473;-70
2022/01/02 06:22:53;;;;;;;14.67;7.90;;;11.40;82.40;;;;;;4992388;28;20420;-70
2022/01/02 06:25:19;;;;;;;13.82;7.85;;;11.40;82.50;;;;;;4991277;28;20930;-70
2022/01/02 06:27:44;;;;;;;11.30;7.17;;;11.40;82.80;;;;;;4992668;28;20398;-69
2022/01/02 06:30:10;;;;;;;15.57;8.10;;;11.40;82.50;;;;;;4993328;28;20418;-70
2022/01/02 06:32:36;;;;;;;14.93;8.40;;;11.40;82.10;;;;;;4992326;28;20401;-70
2022/01/02 06:35:01;;;;;;;13.60;7.87;;;11.40;83.00;;;;;;4992343;28;20382;-69
2022/01/02 06:37:27;;;;;;;13.00;8.00;;;11.30;83.80;;;;;;4992035;28;20394;-70
2022/01/02 06:39:52;;;;;;;13.73;8.23;;;11.40;84.10;;;;;;4992477;28;20425;-69
2022/01/02 06:42:18;;;;;;;15.18;8.32;;;11.40;83.10;;;;;;4992497;28;20398;-69
2022/01/02 06:44:43;;;;;;;13.50;8.37;;;11.40;83.40;;;;;;4992414;28;20382;-68
2022/01/02 06:47:09;;;;;;;19.27;8.93;;;11.40;83.30;;;;;;4991758;28;20405;-68
2022/01/02 06:49:35;;;;;;;12.67;8.33;;;11.40;84.00;;;;;;4992209;28;20398;-67
2022/01/02 06:52:00;;;;;;;17.27;8.83;;;11.40;82.70;;;;;;4991988;28;20459;-67
2022/01/02 06:54:26;;;;;;;16.90;9.27;;;11.40;83.60;;;;;;4991812;28;20409;-68
2022/01/02 06:56:51;;;;;;;14.17;8.67;;;11.30;84.50;;;;;;4991555;28;20887;-68
2022/01/02 06:59:17;;;;;;;17.20;8.90;;;11.40;84.60;;;;;;4991775;28;20398;-68
2022/01/02 07:01:43;;;;;;;15.37;9.73;;;11.30;84.90;;;;;;4991763;28;20400;-69
2022/01/02 07:04:09;;;;;;;14.43;8.40;;;11.40;84.40;;;;;;4991573;28;20949;-70
2022/01/02 07:06:34;;;;;;;20.98;8.88;;;11.40;83.90;;;;;;4991445;28;20791;-69
2022/01/02 07:09:00;;;;;;;15.77;8.95;;;11.40;83.50;;;;;;4990172;28;20391;-68
2022/01/02 07:11:26;;;;;;;16.10;8.63;;;11.30;84.90;;;;;;4991524;28;20855;-69
2022/01/02 07:13:52;;;;;;;16.92;9.05;;;11.40;84.00;;;;;;4991454;28;20421;-68
2022/01/02 07:16:17;;;;;;;17.85;9.65;;;11.40;83.60;;;;;;4991225;28;20392;-68
2022/01/02 07:18:43;;;;;;;14.32;8.68;;;11.30;83.90;;;;;;4991294;28;20429;-68
2022/01/02 07:21:08;;;;;;;22.52;9.75;;;11.40;83.20;;;;;;4991561;28;20405;-70
2022/01/02 07:23:34;;;;;;;15.90;9.32;;;11.40;82.70;;;;;;4991538;28;20449;-69
2022/01/02 07:26:00;;;;;;;19.42;10.07;;;11.40;82.10;;;;;;4991245;28;20398;-69
2022/01/02 07:28:25;;;;;;;21.80;9.32;;;11.40;81.00;;;;;;4991006;28;20465;-70
2022/01/02 07:30:51;;;;;;;19.40;10.33;;;11.40;81.80;;;;;;4991473;28;20465;-70
2022/01/02 07:33:16;;;;;;;16.80;9.30;;;11.40;81.30;;;;;;4991260;28;20433;-69
2022/01/02 07:35:42;;;;;;;15.20;9.47;;;11.40;81.10;;;;;;4991291;28;20400;-69
2022/01/02 07:38:07;;;;;;;15.40;8.87;;;11.50;81.20;;;;;;4989773;28;20407;-69
2022/01/02 07:40:33;;;;;;;16.93;8.80;;;11.50;79.60;;;;;;4991296;28;20433;-70
2022/01/02 07:42:59;;;;;;;17.53;9.57;;;11.50;80.70;;;;;;4989674;28;20410;-69
2022/01/02 07:45:24;;;;;;;21.30;9.70;;;11.50;80.80;;;;;;4991356;28;20399;-69
2022/01/02 07:47:50;;;;;;;19.90;8.90;;;11.40;79.10;;;;;;4990733;28;20457;-70
2022/01/02 07:50:15;;;;;;;16.55;9.32;;;11.40;79.80;;;;;;4990910;28;20387;-71
2022/01/02 07:52:41;;;;;;;13.90;8.98;;;11.50;77.40;;;;;;4990943;28;20418;-69
2022/01/02 07:55:07;;;;;;;15.18;7.82;;;11.50;77.40;;;;;;4991001;28;20442;-69
2022/01/02 07:57:33;;;;;;;17.45;7.90;;;11.50;77.90;;;;;;4990775;28;20429;-69
2022/01/02 07:59:58;;;;;;;12.00;7.87;;;11.50;77.20;;;;;;4989117;28;20390;-69
2022/01/02 08:02:24;;;;;;;14.87;7.63;;;11.50;77.20;;;;;;4990822;28;20411;-67
2022/01/02 08:04:49;;;;;;;13.20;7.80;;;11.50;77.30;;;;;;4989454;28;20490;-69
2022/01/02 08:07:15;;;;;;;12.83;7.00;;;11.50;75.90;;;;;;4990594;28;20386;-69
2022/01/02 08:09:40;;;;;;;14.32;7.57;;;11.50;75.90;;;;;;4990960;28;20899;-69
2022/01/02 08:12:06;;;;;;;13.07;6.82;;;11.50;75.30;;;;;;4990731;28;20413;-68
2022/01/02 08:14:32;;;;;;;12.95;6.50;;;11.50;73.80;;;;;;4990540;28;20445;-67
2022/01/02 08:16:57;;;;;;;11.25;6.20;;;11.50;73.10;;;;;;4990502;28;20419;-67
2022/01/02 08:19:23;;;;;;;15.00;6.90;;;11.60;72.10;;;;;;4990722;28;20421;-68
2022/01/02 08:21:48;;;;;;;13.93;6.70;;;11.50;72.40;;;;;;4990813;28;20382;-68
2022/01/02 08:24:14;;;;;;;8.90;6.28;;;11.50;70.60;;;;;;4990239;28;20410;-68
2022/01/02 08:26:40;;;;;;;9.10;5.75;;;11.60;68.70;;;;;;4990489;28;20772;-68
2022/01/02 08:29:05;;;;;;;14.75;6.80;;;11.70;67.40;;;;;;4990757;28;20406;-68
2022/01/02 08:31:31;;;;;;;11.40;6.55;;;11.70;66.90;;;;;;4990639;28;20429;-69
2022/01/02 08:33:58;;;;;;;11.40;6.20;;;11.80;64.70;;;;;;4990597;28;20437;-68
2022/01/02 08:36:24;;;;;;;10.55;6.35;;;11.80;64.10;;;;;;4990843;28;20895;-68
2022/01/02 08:38:50;;;;;;;10.68;6.00;;;11.80;64.60;;;;;;4990637;28;20489;-68
2022/01/02 08:41:16;;;;;;;9.07;5.77;;;11.80;63.20;;;;;;4990637;28;20561;-68
2022/01/02 08:43:42;;;;;;;10.98;5.57;;;11.90;62.20;;;;;;4990862;28;20402;-69
2022/01/02 08:46:08;;;;;;;12.15;5.90;;;11.90;60.70;;;;;;4991257;28;20883;-69
2022/01/02 08:48:34;;;;;;;7.90;5.28;;;11.80;61.60;;;;;;4990678;28;20394;-69
2022/01/02 08:50:59;;;;;;;9.30;5.70;;;11.90;59.90;;;;;;4990655;28;20387;-69
2022/01/02 08:53:27;;;;;;;8.05;5.30;;;11.90;58.70;;;;;;4990904;28;20478;-70
2022/01/02 08:55:53;;;;;;;10.93;6.00;;;12.00;57.80;;;;;;4991998;28;20402;-69
2022/01/02 08:58:20;;;;;;;6.87;5.23;;;12.00;57.20;;;;;;4990866;28;20386;-68
2022/01/02 09:00:46;;;;;;;8.52;5.15;;;12.10;56.70;;;;;;4990157;28;20418;-68
2022/01/02 09:03:12;;;;;;;8.65;5.40;;;12.00;57.50;;;;;;4989605;28;20932;-68
2022/01/02 09:05:38;;;;;;;7.43;4.97;;;12.00;56.50;;;;;;4990819;28;20402;-69
2022/01/02 09:08:04;;;;;;;12.23;6.10;;;12.10;56.50;;;;;;4990377;28;20409;-68
2022/01/02 09:10:30;;;;;;;7.90;4.90;;;12.10;55.80;;;;;;4991065;28;20382;-69
2022/01/02 09:12:56;;;;;;;10.70;5.70;;;12.20;54.00;;;;;;4993892;28;20824;-68
2022/01/02 09:15:21;;;;;;;10.27;5.53;;;12.30;54.70;;;;;;4993868;28;20898;-69
2022/01/02 09:17:47;;;;;;;8.23;5.40;;;12.20;54.70;;;;;;4993858;28;20424;-68
2022/01/02 09:20:14;;;;;;;7.47;5.40;;;12.30;54.00;;;;;;4993730;28;20477;-69
2022/01/02 09:22:40;;;;;;;7.97;5.40;;;12.20;53.80;;;;;;4993865;28;20513;-69
2022/01/02 09:25:08;;;;;;;10.18;4.97;;;12.30;53.00;;;;;;4993537;28;20899;-69
2022/01/02 09:27:35;;;;;;;7.13;5.20;;;12.40;53.00;;;;;;4992392;28;20398;-69
2022/01/02 09:30:02;;;;;;;9.75;5.30;;;12.30;53.20;;;;;;4993609;28;20393;-69
2022/01/02 09:32:28;;;;;;;8.93;5.60;;;12.40;52.10;;;;;;4993707;28;20387;-70
2022/01/02 09:34:53;;;;;;;6.13;5.18;;;12.40;52.00;;;;;;4993574;28;20911;-69
2022/01/02 09:37:19;;;;;;;8.60;5.63;;;12.40;51.90;;;;;;4991834;28;20395;-66
2022/01/02 09:39:45;;;;;;;11.90;5.60;;;12.40;51.80;;;;;;4992304;28;20395;-69
2022/01/02 09:42:11;;;;;;;7.53;5.30;;;12.40;52.30;;;;;;4993537;28;20386;-71
2022/01/02 09:44:37;;;;;;;10.07;5.20;;;12.40;52.30;;;;;;4993330;28;20957;-68
2022/01/02 09:47:04;;;;;;;9.97;5.83;;;12.40;51.30;;;;;;4993062;28;20473;-70
2022/01/02 09:49:31;;;;;;;9.02;5.57;;;12.40;51.90;;;;;;4991725;28;20437;-68
2022/01/02 09:51:57;;;;;;;7.43;5.53;;;12.50;53.00;;;;;;4993353;28;20465;-68
2022/01/02 09:54:23;;;;;;;7.40;5.80;;;12.50;54.10;;;;;;4993186;28;20473;-68
2022/01/02 09:56:48;;;;;;;8.67;5.87;;;12.40;55.80;;;;;;4993068;28;20425;-68
2022/01/02 09:59:14;;;;;;;7.97;5.53;;;12.40;56.30;;;;;;4993307;28;20911;-70
2022/01/02 10:01:39;;;;;;;7.43;5.93;;;12.50;56.30;;;;;;4993611;28;20382;-69
2022/01/02 10:04:05;;;;;;;5.65;4.93;;;12.50;53.90;;;;;;4993029;28;20815;-69
2022/01/02 10:06:41;;;;;;;7.53;5.32;;;12.50;54.80;;;;;;4993309;28;20465;-70
2022/01/02 10:09:14;;;;;;;8.60;5.78;;;12.50;55.10;;;;;;4993054;28;20441;-69
2022/01/02 10:11:40;;;;;;;8.82;5.18;;;12.60;54.20;;;;;;4993192;28;20481;-69
2022/01/02 10:14:09;;;;;;;9.35;4.95;;;12.60;53.70;;;;;;4993114;28;20474;-69
2022/01/02 10:16:40;;;;;;;7.18;4.70;;;12.70;53.40;;;;;;4993431;28;20481;-70
2022/01/02 10:19:29;;;;;;;7.82;5.10;;;12.80;51.90;;;;;;4991664;28;20395;-70
2022/01/02 10:21:56;;;;;;;8.95;4.43;;;12.90;50.90;;;;;;4992488;28;20775;-67
2022/01/02 10:24:27;;;;;;;7.43;4.60;;;13.00;49.10;;;;;;5006172;23;20445;-72
2022/01/02 10:27:12;;;;;;;7.00;4.40;;;13.10;48.70;;;;;;4973562;28;20392;-71
2022/01/02 10:29:54;;;;;;;8.48;4.22;;;13.20;47.70;;;;;;4973550;28;20411;-72
2022/01/02 10:32:29;;;;;;;7.05;4.50;;;13.30;46.80;;;;;;4973458;28;20789;-72
2022/01/02 10:35:09;;;;;;;8.23;4.30;;;13.50;46.30;;;;;;4973211;28;20447;-72
2022/01/02 10:37:35;;;;;;;8.60;4.37;;;13.60;44.50;;;;;;4971967;28;20500;-71
2022/01/02 10:40:00;;;;;;;10.60;4.27;;;13.70;44.20;;;;;;4973397;28;20467;-71
2022/01/02 10:42:27;;;;;;;8.60;4.57;;;13.90;42.60;;;;;;4973465;28;20388;-71
2022/01/02 10:44:53;;;;;;;9.93;4.40;;;13.90;42.60;;;;;;4974148;28;20384;-71
2022/01/02 10:47:21;;;;;;;8.57;4.40;;;14.00;41.50;;;;;;4973001;28;20476;-72
2022/01/02 10:49:52;;;;;;;7.57;4.60;;;14.10;41.20;;;;;;4973180;28;20873;-72
2022/01/02 10:52:30;;;;;;;10.00;4.38;;;14.10;40.80;;;;;;4971976;28;20466;-71
2022/01/02 10:54:59;;;;;;;8.85;4.70;;;14.20;40.80;;;;;;4973183;28;20442;-71
2022/01/02 10:57:26;;;;;;;9.60;4.40;;;14.20;39.60;;;;;;4972099;28;20392;-72
2022/01/02 10:59:56;;;;;;;11.02;4.70;;;14.30;39.50;;;;;;4973196;28;20389;-72
2022/01/02 11:02:24;;;;;;;10.60;4.60;;;14.40;39.40;;;;;;4973166;28;20446;-73
2022/01/02 11:04:56;;;;;;;11.73;4.50;;;14.40;38.60;;;;;;4973430;28;20388;-72
2022/01/02 11:07:24;;;;;;;10.03;4.73;;;14.40;38.80;;;;;;4972901;28;20409;-72
2022/01/02 11:09:52;;;;;;;8.45;4.40;;;14.50;38.70;;;;;;4973176;28;20399;-73
2022/01/02 11:12:18;;;;;;;7.18;4.57;;;14.60;38.30;;;;;;4973096;28;20803;-72
2022/01/02 11:14:45;;;;;;;11.95;4.65;;;14.60;38.00;;;;;;4976147;28;20396;-72
2022/01/02 11:17:13;;;;;;;9.10;4.40;;;14.70;37.90;;;;;;4975555;28;20392;-72
2022/01/02 11:19:39;;;;;;;10.00;4.70;;;14.70;37.90;;;;;;4973233;28;20403;-73
2022/01/02 11:22:28;;;;;;;10.20;4.40;;;14.70;38.10;;;;;;4973212;28;20396;-73
2022/01/02 11:25:28;;;;;;;7.25;4.78;;;14.70;38.30;;;;;;4973000;28;20427;-72
2022/01/02 11:28:02;;;;;;;5.82;4.50;;;14.70;37.80;;;;;;4989975;28;20411;-72
2022/01/02 11:30:34;;;;;;;9.90;5.10;;;14.70;38.20;;;;;;4974752;28;20458;-72
2022/01/02 11:33:04;;;;;;;8.52;4.90;;;14.60;38.60;;;;;;4978550;28;20837;-73
2022/01/02 11:35:33;;;;;;;11.60;5.15;;;14.50;38.90;;;;;;4978645;28;20475;-73
2022/01/02 11:38:03;;;;;;;9.38;5.30;;;14.50;39.20;;;;;;4978065;28;20531;-73
2022/01/02 11:40:56;;;;;;;7.83;4.70;;;14.50;39.10;;;;;;4973208;28;20881;-72
2022/01/02 11:43:46;;;;;;;9.80;4.60;;;14.60;38.50;;;;;;4973337;28;20404;-73
2022/01/02 11:46:29;;;;;;;7.82;4.85;;;14.60;38.80;;;;;;4972431;28;20811;-72
2022/01/02 11:49:04;;;;;;;8.50;4.60;;;14.60;38.10;;;;;;4975320;28;20403;-73
2022/01/02 11:51:55;;;;;;;10.73;4.88;;;14.70;39.00;;;;;;4973992;28;20510;-72
2022/01/02 11:54:31;;;;;;;9.85;5.10;;;14.60;38.80;;;;;;4967898;28;20893;-73
2022/01/02 11:57:19;;;;;;;10.75;5.20;;;14.60;40.20;;;;;;4972559;28;20380;-72
2022/01/02 11:59:45;;;;;;;11.50;5.28;;;14.40;39.80;;;;;;4972551;28;20423;-72
2022/01/02 12:02:24;;;;;;;7.18;4.82;;;14.40;40.10;;;;;;4971153;28;20396;-73
2022/01/02 12:04:59;;;;;;;13.97;5.23;;;14.40;39.80;;;;;;4972333;28;20468;-72
2022/01/02 12:07:37;;;;;;;10.93;4.70;;;14.40;40.90;;;;;;4972178;28;20408;-72
2022/01/02 12:10:17;;;;;;;11.43;5.00;;;14.30;41.00;;;;;;4972742;28;20424;-72
2022/01/02 12:13:06;;;;;;;10.23;4.72;;;14.30;41.20;;;;;;4972460;28;20395;-72
2022/01/02 12:15:34;;;;;;;11.10;5.50;;;14.20;41.20;;;;;;4972442;28;20389;-72
2022/01/02 12:18:23;;;;;;;8.82;5.00;;;14.30;42.00;;;;;;4972006;28;20479;-72
2022/01/02 12:20:52;;;;;;;9.70;4.85;;;14.30;41.70;;;;;;4972458;28;20391;-72
2022/01/02 12:23:30;;;;;;;10.20;4.60;;;14.30;41.20;;;;;;4972404;28;20875;-72
2022/01/02 12:26:02;;;;;;;9.10;4.60;;;14.30;42.10;;;;;;4971954;28;20479;-73
2022/01/02 12:28:36;;;;;;;8.80;5.17;;;14.30;41.30;;;;;;4972055;28;20388;-73
2022/01/02 12:31:02;;;;;;;13.70;4.87;;;14.30;41.50;;;;;;4972150;28;20412;-72
2022/01/02 12:33:30;;;;;;;13.48;5.20;;;14.30;42.00;;;;;;4972648;28;20475;-73
2022/01/02 12:35:56;;;;;;;6.88;4.32;;;14.20;42.30;;;;;;4973425;28;20396;-73
2022/01/02 12:38:22;;;;;;;9.20;4.80;;;14.30;41.90;;;;;;4973316;28;20483;-72
2022/01/02 12:40:49;;;;;;;12.23;4.90;;;14.20;42.50;;;;;;4976810;28;20430;-73
2022/01/02 12:43:22;;;;;;;9.52;5.32;;;14.20;42.60;;;;;;4977954;28;20880;-74
2022/01/02 12:45:55;;;;;;;14.27;5.10;;;14.10;43.60;;;;;;4977774;28;20411;-72
2022/01/02 12:48:34;;;;;;;7.60;4.90;;;14.10;42.90;;;;;;4985124;28;20388;-74
2022/01/02 12:51:14;;;;;;;11.10;4.82;;;14.10;43.90;;;;;;4982008;28;20479;-73
2022/01/02 12:53:39;;;;;;;10.38;4.75;;;14.00;43.80;;;;;;4975894;28;20491;-73